KPLR/PLR METAR and TAF weather

Enter ICAO airport designator
Station Type Date Time Source
KPLR METAR 2020/08/12 18:15 UTC NOAA

KPLR 121815Z AUTO 20006KT 10SM CLR 33/27 A3001 RMK A01


Station Type Date Time Source
KPLR Decoded METAR 2020/08/12 18:15 UTC NOAA

Station name not available
Aug 12, 2020 - 02:15 PM EDT / 2020.08.12 1815 UTC
Wind: from the SSW (200 degrees) at 7 MPH (6 KT):0
Visibility: 10 mile(s):0
Sky conditions: clear
Temperature: 91 F (33 C)
Heat index: 109.0 F (42.8 C):1
Dew Point: 80 F (27 C)
Relative Humidity: 70%
Pressure (altimeter): 30.01 in. Hg (1016 hPa)
ob: KPLR 121815Z AUTO 20006KT 10SM CLR 33/27 A3001 RMK A01
cycle: 18

Station Type Date Time Source
KPLR TAF UTC NOAA

Error!

Example: see airport list